createdAt,value
2022-11-21T00:00:37.925Z,8.85
2022-11-21T00:03:05.781Z,8.83
2022-11-21T00:05:32.769Z,8.70
2022-11-21T00:07:59.648Z,8.98
2022-11-21T00:10:26.593Z,6.72
2022-11-21T00:12:54.528Z,9.00
2022-11-21T00:15:21.225Z,7.43
2022-11-21T00:17:47.721Z,8.82
2022-11-21T00:20:16.406Z,7.97
2022-11-21T00:22:42.995Z,10.30
2022-11-21T00:25:10.323Z,6.07
2022-11-21T00:27:36.874Z,6.27
2022-11-21T00:30:04.470Z,7.82
2022-11-21T00:32:31.542Z,9.70
2022-11-21T00:34:58.041Z,6.30
2022-11-21T00:37:26.021Z,8.60
2022-11-21T00:39:52.592Z,7.27
2022-11-21T00:42:19.315Z,7.00
2022-11-21T00:44:45.830Z,7.63
2022-11-21T00:47:12.473Z,6.32
2022-11-21T00:49:39.086Z,6.82
2022-11-21T00:52:05.813Z,6.67
2022-11-21T00:54:33.695Z,7.10
2022-11-21T00:57:00.254Z,7.03
2022-11-21T00:59:26.807Z,5.47
2022-11-21T01:01:53.385Z,7.32
2022-11-21T01:04:20.104Z,6.57
2022-11-21T01:06:46.593Z,6.30
2022-11-21T01:09:13.367Z,6.43
2022-11-21T01:11:41.219Z,6.03
2022-11-21T01:14:07.748Z,6.57
2022-11-21T01:16:34.791Z,5.90
2022-11-21T01:19:01.411Z,5.88
2022-11-21T01:21:29.447Z,6.10
2022-11-21T01:23:58.411Z,5.13
2022-11-21T01:26:26.947Z,5.53
2022-11-21T01:28:55.459Z,6.00
2022-11-21T01:31:23.647Z,5.82
2022-11-21T01:33:50.337Z,5.00
2022-11-21T01:36:18.801Z,6.60
2022-11-21T01:38:47.585Z,5.10
2022-11-21T01:41:16.677Z,4.33
2022-11-21T01:43:43.298Z,4.38
2022-11-21T01:46:14.270Z,4.85
2022-11-21T01:48:46.076Z,4.90
2022-11-21T01:51:16.755Z,6.00
2022-11-21T01:53:48.749Z,4.97
2022-11-21T01:56:15.642Z,7.47
2022-11-21T01:58:45.029Z,7.40
2022-11-21T02:01:13.393Z,8.43
2022-11-21T02:03:42.288Z,8.05
2022-11-21T02:06:09.891Z,8.83
2022-11-21T02:08:37.259Z,9.00
2022-11-21T02:11:12.193Z,8.15
2022-11-21T02:13:38.779Z,8.55
2022-11-21T02:16:07.197Z,8.38
2022-11-21T02:18:35.444Z,8.90
2022-11-21T02:21:09.045Z,8.75
2022-11-21T02:23:41.721Z,8.43
2022-11-21T02:26:10.707Z,9.02
2022-11-21T02:28:37.392Z,8.93
2022-11-21T02:31:04.153Z,7.67
2022-11-21T02:33:30.661Z,7.40
2022-11-21T02:35:58.297Z,7.60
2022-11-21T02:38:28.938Z,7.05
2022-11-21T02:41:03.639Z,6.57
2022-11-21T02:43:35.578Z,6.13
2022-11-21T02:46:02.160Z,5.25
2022-11-21T02:48:28.670Z,5.90
2022-11-21T02:50:55.311Z,4.40
2022-11-21T02:53:21.838Z,4.97
2022-11-21T02:55:48.428Z,4.73
2022-11-21T02:58:15.070Z,3.95
2022-11-21T03:00:43.347Z,4.28
2022-11-21T03:03:09.906Z,3.63
2022-11-21T03:05:37.459Z,3.90
2022-11-21T03:08:04.986Z,3.67
2022-11-21T03:10:31.918Z,4.05
2022-11-21T03:12:58.582Z,3.92
2022-11-21T03:15:25.171Z,3.70
2022-11-21T03:17:53.032Z,3.78
2022-11-21T03:20:19.562Z,3.87
2022-11-21T03:22:46.197Z,4.55
2022-11-21T03:25:12.722Z,4.70
2022-11-21T03:27:39.301Z,4.57
2022-11-21T03:30:07.346Z,4.55
2022-11-21T03:32:33.916Z,5.03
2022-11-21T03:35:01.774Z,4.93
2022-11-21T03:37:28.347Z,5.18
2022-11-21T03:39:55.010Z,5.70
2022-11-21T03:42:21.489Z,6.97
2022-11-21T03:44:50.917Z,6.47
2022-11-21T03:47:17.407Z,6.03
2022-11-21T03:49:43.962Z,7.05
2022-11-21T03:52:11.797Z,6.68
2022-11-21T03:54:38.362Z,6.82
2022-11-21T03:57:04.869Z,6.53
2022-11-21T03:59:31.377Z,6.82
2022-11-21T04:01:58.137Z,7.60
2022-11-21T04:04:24.737Z,7.05
2022-11-21T04:06:51.351Z,6.75
2022-11-21T04:09:19.198Z,5.80
2022-11-21T04:11:45.849Z,6.53
2022-11-21T04:14:12.312Z,7.15
2022-11-21T04:16:38.810Z,7.22
2022-11-21T04:19:05.361Z,7.40
2022-11-21T04:21:31.942Z,7.10
2022-11-21T04:23:58.425Z,6.30
2022-11-21T04:26:26.290Z,6.80
2022-11-21T04:28:52.755Z,8.25
2022-11-21T04:31:19.337Z,7.00
2022-11-21T04:33:45.860Z,7.33
2022-11-21T04:36:12.366Z,6.50
2022-11-21T04:38:38.916Z,7.38
2022-11-21T04:41:05.567Z,8.23
2022-11-21T04:43:33.433Z,7.43
2022-11-21T04:46:00.003Z,7.83
2022-11-21T04:48:26.535Z,7.80
2022-11-21T04:50:53.087Z,7.88
2022-11-21T04:53:19.746Z,8.35
2022-11-21T04:55:46.253Z,8.25
2022-11-21T04:58:12.935Z,7.33
2022-11-21T05:00:40.850Z,8.20
2022-11-21T05:03:07.609Z,8.13
2022-11-21T05:05:34.292Z,9.35
2022-11-21T05:08:00.862Z,8.70
2022-11-21T05:10:27.725Z,9.93
2022-11-21T05:12:58.107Z,7.63
2022-11-21T05:15:25.147Z,7.82
2022-11-21T05:17:53.181Z,8.25
2022-11-21T05:20:19.812Z,7.78
2022-11-21T05:22:51.342Z,9.53
2022-11-21T05:25:18.207Z,8.30
2022-11-21T05:27:44.715Z,10.75
2022-11-21T05:30:12.843Z,8.18
2022-11-21T05:32:39.369Z,8.43
2022-11-21T05:35:07.932Z,7.57
2022-11-21T05:37:34.517Z,8.50
2022-11-21T05:40:01.036Z,10.02
2022-11-21T05:42:27.576Z,9.77
2022-11-21T05:44:54.225Z,11.15
2022-11-21T05:47:20.765Z,8.70
2022-11-21T05:49:47.427Z,11.88
2022-11-21T05:52:15.452Z,10.35
2022-11-21T05:54:45.953Z,12.05
2022-11-21T05:57:12.740Z,9.30
2022-11-21T05:59:39.294Z,8.53
2022-11-21T06:02:05.808Z,9.52
2022-11-21T06:04:32.382Z,9.20
2022-11-21T06:06:59.075Z,10.23
2022-11-21T06:09:27.145Z,10.38
2022-11-21T06:11:53.696Z,9.37
2022-11-21T06:14:20.373Z,8.95
2022-11-21T06:16:47.069Z,9.63
2022-11-21T06:19:13.712Z,9.32
2022-11-21T06:21:40.374Z,10.02
2022-11-21T06:24:08.004Z,10.43
2022-11-21T06:26:36.032Z,9.88
2022-11-21T06:29:02.715Z,9.88
2022-11-21T06:31:29.307Z,10.90
2022-11-21T06:33:58.099Z,11.13
2022-11-21T06:36:25.353Z,10.63
2022-11-21T06:38:53.893Z,12.48
2022-11-21T06:41:21.698Z,11.00
2022-11-21T06:43:49.601Z,12.75
2022-11-21T06:46:16.612Z,11.68
2022-11-21T06:48:43.772Z,12.37
2022-11-21T06:51:16.176Z,9.98
2022-11-21T06:53:42.986Z,10.05
2022-11-21T06:56:09.859Z,11.00
2022-11-21T06:58:36.471Z,9.35
2022-11-21T07:01:06.829Z,9.93
2022-11-21T07:03:33.557Z,9.82
2022-11-21T07:06:00.732Z,10.90
2022-11-21T07:08:27.839Z,9.18
2022-11-21T07:11:22.919Z,9.88
2022-11-21T07:13:42.847Z,10.27
2022-11-21T07:16:12.408Z,10.57
2022-11-21T07:18:38.947Z,11.75
2022-11-21T07:21:06.931Z,10.23
2022-11-21T07:23:34.356Z,11.10
2022-11-21T07:26:01.479Z,11.43
2022-11-21T07:28:28.229Z,10.57
2022-11-21T07:30:56.311Z,10.30
2022-11-21T07:33:24.319Z,11.05
2022-11-21T07:35:51.273Z,10.65
2022-11-21T07:38:18.344Z,10.57
2022-11-21T07:40:44.917Z,11.35
2022-11-21T07:43:11.831Z,11.95
2022-11-21T07:45:38.412Z,10.95
2022-11-21T07:48:07.244Z,11.73
2022-11-21T07:50:35.453Z,11.57
2022-11-21T07:53:03.821Z,12.20
2022-11-21T07:55:30.441Z,12.10
2022-11-21T07:58:01.079Z,11.23
2022-11-21T08:00:29.246Z,10.90
2022-11-21T08:02:56.013Z,11.10
2022-11-21T08:05:23.042Z,11.98
2022-11-21T08:07:51.108Z,11.27
2022-11-21T08:10:18.234Z,10.40
2022-11-21T08:12:45.374Z,10.75
2022-11-21T08:15:12.560Z,10.43
2022-11-21T08:17:39.455Z,10.35
2022-11-21T08:20:07.351Z,12.65
2022-11-21T08:22:38.490Z,13.10
2022-11-21T08:25:08.943Z,11.70
2022-11-21T08:27:36.418Z,11.53
2022-11-21T08:30:03.763Z,11.60
2022-11-21T08:32:31.013Z,10.68
2022-11-21T08:34:57.553Z,13.57
2022-11-21T08:37:24.086Z,10.95
2022-11-21T08:39:50.593Z,11.10
2022-11-21T08:42:18.467Z,11.48
2022-11-21T08:44:45.052Z,10.10
2022-11-21T08:47:11.571Z,9.88
2022-11-21T08:49:38.081Z,9.68
2022-11-21T08:52:04.802Z,10.37
2022-11-21T08:54:31.482Z,9.88
2022-11-21T08:56:58.066Z,9.52
2022-11-21T08:59:26.008Z,10.63
2022-11-21T09:01:52.598Z,8.32
2022-11-21T09:04:19.206Z,8.00
2022-11-21T09:06:45.773Z,8.65
2022-11-21T09:09:12.596Z,9.98
2022-11-21T09:11:39.171Z,8.98
2022-11-21T09:14:05.740Z,8.52
2022-11-21T09:16:33.583Z,9.47
2022-11-21T09:19:00.274Z,9.48
2022-11-21T09:21:26.845Z,8.73
2022-11-21T09:23:53.380Z,9.00
2022-11-21T09:26:19.959Z,9.00
2022-11-21T09:28:47.004Z,7.90
2022-11-21T09:31:13.729Z,8.57
2022-11-21T09:33:41.613Z,8.55
2022-11-21T09:36:08.346Z,9.70
2022-11-21T09:38:35.032Z,8.35
2022-11-21T09:41:13.877Z,8.33
2022-11-21T09:43:49.650Z,9.00
2022-11-21T09:46:21.496Z,7.85
2022-11-21T09:48:54.391Z,8.13
2022-11-21T09:51:22.402Z,8.45
2022-11-21T09:53:57.484Z,7.70
2022-11-21T09:56:25.289Z,7.13
2022-11-21T09:59:03.656Z,7.85
2022-11-21T10:01:31.005Z,7.60
2022-11-21T10:04:02.154Z,8.50
2022-11-21T10:06:31.022Z,8.70
2022-11-21T10:09:07.672Z,8.68
2022-11-21T10:11:48.067Z,8.15
2022-11-21T10:14:24.211Z,7.40
2022-11-21T10:17:00.551Z,7.60
2022-11-21T10:19:43.530Z,6.93
2022-11-21T10:22:26.029Z,7.00
2022-11-21T10:24:56.092Z,6.97
2022-11-21T10:27:31.686Z,6.00
2022-11-21T10:30:01.944Z,5.90
2022-11-21T10:32:32.941Z,5.30
2022-11-21T10:35:12.500Z,6.00
2022-11-21T10:37:42.176Z,8.27
2022-11-21T10:40:18.855Z,6.68
2022-11-21T10:42:53.319Z,6.30
2022-11-21T10:45:19.882Z,6.60
2022-11-21T10:47:48.065Z,6.25
2022-11-21T10:50:46.815Z,7.05
2022-11-21T10:53:17.914Z,6.70
2022-11-21T10:55:58.959Z,6.28
2022-11-21T10:58:34.982Z,6.13
2022-11-21T11:01:01.677Z,6.40
2022-11-21T11:03:30.153Z,7.43
2022-11-21T11:05:58.099Z,8.43
2022-11-21T11:08:24.646Z,6.88
2022-11-21T11:11:03.563Z,6.90
2022-11-21T11:13:49.104Z,6.78
2022-11-21T11:16:18.253Z,6.72
2022-11-21T11:18:48.731Z,10.73
2022-11-21T11:21:19.278Z,11.52
2022-11-21T11:23:47.000Z,9.93
2022-11-21T11:26:23.891Z,7.82
2022-11-21T11:28:50.716Z,7.88
2022-11-21T11:31:17.453Z,7.53
2022-11-21T11:33:53.283Z,8.13
2022-11-21T11:36:36.607Z,8.07
2022-11-21T11:39:11.264Z,6.90
2022-11-21T11:42:22.333Z,7.15
2022-11-21T11:45:02.288Z,7.22
2022-11-21T11:47:34.492Z,7.82
2022-11-21T11:50:09.317Z,7.30
2022-11-21T11:52:43.195Z,7.50
2022-11-21T11:55:19.899Z,7.63
2022-11-21T11:57:48.388Z,6.88
2022-11-21T12:00:28.450Z,7.45
2022-11-21T12:03:01.361Z,8.37
2022-11-21T12:05:30.792Z,9.60
2022-11-21T12:11:07.119Z,9.32
2022-11-21T12:13:36.430Z,10.57
2022-11-21T12:16:13.050Z,10.87
2022-11-21T12:18:49.103Z,10.75
2022-11-21T12:21:16.893Z,11.18
2022-11-21T12:23:48.442Z,14.52
2022-11-21T12:26:27.715Z,11.38
2022-11-21T12:29:17.046Z,10.20
2022-11-21T12:32:04.662Z,12.45
2022-11-21T12:34:47.160Z,12.70
2022-11-21T12:37:28.849Z,10.13
2022-11-21T12:40:15.783Z,11.18
2022-11-21T12:42:55.434Z,10.73
2022-11-21T12:45:27.429Z,11.40
2022-11-21T12:48:17.419Z,10.80
2022-11-21T12:50:52.006Z,11.55
2022-11-21T12:53:25.077Z,12.48
2022-11-21T12:56:00.225Z,10.70
2022-11-21T12:58:32.152Z,10.55
2022-11-21T13:01:21.045Z,12.50
2022-11-21T13:03:54.809Z,12.40
2022-11-21T13:06:24.438Z,13.13
2022-11-21T13:08:53.059Z,12.23
2022-11-21T13:11:37.826Z,10.57
2022-11-21T13:14:11.603Z,12.82
2022-11-21T13:16:41.119Z,11.98
2022-11-21T13:19:21.217Z,10.88
2022-11-21T13:21:49.273Z,11.00
2022-11-21T13:24:51.225Z,11.90
2022-11-21T13:27:38.837Z,11.65
2022-11-21T13:30:24.618Z,11.50
2022-11-21T13:32:52.758Z,12.18
2022-11-21T13:36:05.135Z,9.70
2022-11-21T13:38:32.769Z,11.07
2022-11-21T13:40:59.320Z,11.60
2022-11-21T13:43:35.504Z,11.65
2022-11-21T13:46:02.440Z,10.85
2022-11-21T13:49:01.434Z,11.13
2022-11-21T13:51:46.760Z,11.57
2022-11-21T13:54:47.870Z,11.85
2022-11-21T13:57:30.253Z,11.65
2022-11-21T14:00:19.655Z,12.95
2022-11-21T14:03:33.733Z,13.13
2022-11-21T14:06:19.673Z,12.23
2022-11-21T14:09:05.281Z,12.93
2022-11-21T14:11:36.694Z,16.02
2022-11-21T14:14:03.491Z,12.75
2022-11-21T14:16:36.807Z,13.67
2022-11-21T14:19:04.923Z,15.40
2022-11-21T14:21:33.885Z,16.90
2022-11-21T14:24:04.823Z,15.75
2022-11-21T14:26:37.767Z,17.25
2022-11-21T14:29:19.400Z,14.87
2022-11-21T14:31:48.501Z,19.27
2022-11-21T14:34:24.996Z,15.57
2022-11-21T14:36:51.927Z,14.55
2022-11-21T14:39:38.067Z,16.08
2022-11-21T14:42:12.386Z,15.70
2022-11-21T14:44:39.121Z,18.35
2022-11-21T14:47:17.161Z,16.27
2022-11-21T14:49:50.080Z,17.05
2022-11-21T14:52:19.630Z,14.27
2022-11-21T14:55:22.280Z,13.83
2022-11-21T14:57:40.505Z,16.58
2022-11-21T15:00:07.920Z,14.07
2022-11-21T15:02:35.969Z,13.68
2022-11-21T15:05:04.993Z,13.38
2022-11-21T15:07:39.048Z,14.93
2022-11-21T15:12:57.437Z,15.18
2022-11-21T15:15:28.218Z,14.57
2022-11-21T15:18:24.382Z,12.43
2022-11-21T15:20:49.057Z,11.90
2022-11-21T15:23:26.339Z,14.25
2022-11-21T15:25:56.618Z,15.05
2022-11-21T15:28:26.639Z,13.60
2022-11-21T15:31:15.501Z,13.10
2022-11-21T15:34:33.709Z,16.13
2022-11-21T15:37:01.693Z,19.65
2022-11-21T15:39:28.306Z,19.70
2022-11-21T15:41:54.849Z,16.20
2022-11-21T15:44:22.801Z,14.80
2022-11-21T15:46:52.996Z,10.90
2022-11-21T15:49:36.148Z,12.40
2022-11-21T15:52:10.133Z,14.88
2022-11-21T15:54:37.116Z,10.15
2022-11-21T15:57:03.754Z,9.02
2022-11-21T15:59:30.748Z,7.73
2022-11-21T16:01:57.607Z,12.05
2022-11-21T16:04:26.303Z,9.45
2022-11-21T16:06:53.221Z,9.25
2022-11-21T16:09:19.813Z,11.35
2022-11-21T16:11:47.175Z,9.20
2022-11-21T16:14:16.236Z,8.50
2022-11-21T16:16:44.455Z,9.98
2022-11-21T16:19:11.871Z,10.18
2022-11-21T16:21:40.315Z,10.65
2022-11-21T16:24:07.220Z,10.33
2022-11-21T16:26:34.125Z,11.75
2022-11-21T16:29:01.566Z,12.77
2022-11-21T16:31:29.657Z,17.45
2022-11-21T16:33:56.640Z,20.25
2022-11-21T16:36:24.355Z,18.10
2022-11-21T16:38:52.877Z,15.20
2022-11-21T16:41:21.365Z,21.40
2022-11-21T16:43:49.868Z,21.33
2022-11-21T16:46:17.413Z,19.27
2022-11-21T16:48:44.433Z,17.00
2022-11-21T16:51:12.389Z,15.75
2022-11-21T16:53:39.624Z,21.15
2022-11-21T16:56:08.390Z,18.73
2022-11-21T16:58:36.257Z,22.98
2022-11-21T17:01:10.303Z,20.60
2022-11-21T17:03:37.380Z,16.15
2022-11-21T17:06:04.006Z,14.25
2022-11-21T17:08:30.712Z,15.35
2022-11-21T17:10:59.359Z,12.93
2022-11-21T17:13:27.225Z,11.43
2022-11-21T17:15:53.752Z,10.38
2022-11-21T17:18:20.316Z,14.23
2022-11-21T17:20:46.799Z,12.15
2022-11-21T17:23:13.335Z,12.25
2022-11-21T17:25:39.939Z,12.33
2022-11-21T17:28:06.599Z,13.60
2022-11-21T17:30:34.462Z,12.32
2022-11-21T17:33:01.043Z,12.32
2022-11-21T17:35:27.601Z,16.75
2022-11-21T17:37:54.091Z,14.60
2022-11-21T17:40:20.750Z,20.83
2022-11-21T17:42:47.269Z,20.98
2022-11-21T17:45:13.867Z,18.45
2022-11-21T17:47:41.768Z,18.15
2022-11-21T17:50:08.468Z,18.57
2022-11-21T17:52:35.419Z,19.85
2022-11-21T17:55:01.957Z,17.10
2022-11-21T17:57:28.514Z,15.73
2022-11-21T17:59:55.079Z,12.35
2022-11-21T18:02:21.955Z,14.10
2022-11-21T18:04:49.907Z,15.68
2022-11-21T18:07:16.446Z,16.17
2022-11-21T18:09:42.994Z,14.32
2022-11-21T18:12:09.525Z,15.48
2022-11-21T18:14:36.187Z,19.07
2022-11-21T18:17:02.757Z,21.40
2022-11-21T18:19:29.339Z,24.38
2022-11-21T18:21:57.230Z,27.85
2022-11-21T18:24:23.809Z,22.23
2022-11-21T18:26:50.524Z,23.47
2022-11-21T18:32:03.812Z,24.08
2022-11-21T18:34:30.379Z,20.83
2022-11-21T18:36:58.278Z,16.02
2022-11-21T18:39:24.884Z,18.03
2022-11-21T18:41:51.407Z,15.45
2022-11-21T18:44:21.960Z,16.42
2022-11-21T18:46:49.423Z,13.45
2022-11-21T18:49:15.944Z,12.98
2022-11-21T18:51:42.578Z,12.90
2022-11-21T18:54:10.826Z,12.82
2022-11-21T18:56:39.074Z,12.82
2022-11-21T18:59:06.207Z,11.40
2022-11-21T19:01:34.049Z,12.60
2022-11-21T19:04:00.894Z,11.03
2022-11-21T19:06:27.737Z,12.07
2022-11-21T19:08:56.329Z,10.95
2022-11-21T19:11:26.129Z,9.52
2022-11-21T19:13:54.037Z,12.18
2022-11-21T19:16:22.504Z,10.80
2022-11-21T19:19:11.727Z,10.93
2022-11-21T19:21:36.124Z,9.02
2022-11-21T19:24:03.509Z,12.88
2022-11-21T19:26:31.893Z,8.65
2022-11-21T19:28:58.951Z,9.50
2022-11-21T19:31:25.705Z,10.48
2022-11-21T19:33:52.479Z,11.63
2022-11-21T19:36:21.045Z,9.45
2022-11-21T19:38:50.978Z,9.63
2022-11-21T19:41:20.597Z,12.63
2022-11-21T19:43:50.005Z,13.02
2022-11-21T19:46:19.062Z,11.40
2022-11-21T19:48:47.701Z,9.18
2022-11-21T19:51:14.935Z,11.18
2022-11-21T19:53:41.722Z,12.20
2022-11-21T19:56:13.548Z,17.45
2022-11-21T19:58:40.527Z,15.73
2022-11-21T20:01:11.397Z,17.63
2022-11-21T20:03:39.776Z,13.48
2022-11-21T20:06:07.712Z,14.30
2022-11-21T20:08:34.709Z,14.07
2022-11-21T20:11:08.785Z,13.23
2022-11-21T20:13:35.332Z,14.65
2022-11-21T20:16:01.907Z,20.58
2022-11-21T20:18:29.976Z,19.60
2022-11-21T20:20:56.604Z,20.85
2022-11-21T20:23:23.275Z,24.17
2022-11-21T20:25:50.851Z,15.52
2022-11-21T20:28:17.824Z,17.95
2022-11-21T20:30:44.460Z,22.80
2022-11-21T20:33:11.647Z,31.40
2022-11-21T20:35:40.050Z,30.15
2022-11-21T20:38:06.635Z,18.80
2022-11-21T20:40:33.257Z,11.73
2022-11-21T20:43:00.095Z,10.07
2022-11-21T20:48:18.729Z,9.63
2022-11-21T20:51:59.589Z,9.63
2022-11-21T20:53:51.925Z,9.45
2022-11-21T20:56:19.925Z,9.53
2022-11-21T20:58:47.360Z,8.85
2022-11-21T21:01:15.953Z,8.95
2022-11-21T21:03:43.034Z,8.52
2022-11-21T21:06:12.206Z,11.52
2022-11-21T21:08:39.660Z,9.73
2022-11-21T21:11:20.738Z,9.90
2022-11-21T21:13:54.708Z,8.68
2022-11-21T21:16:24.672Z,8.80
2022-11-21T21:18:52.665Z,8.82
2022-11-21T21:21:22.668Z,8.43
2022-11-21T21:23:55.302Z,7.43
2022-11-21T21:26:24.486Z,8.25
2022-11-21T21:28:51.862Z,12.63
2022-11-21T21:31:20.848Z,12.98
2022-11-21T21:33:47.383Z,9.57
2022-11-21T21:36:16.331Z,9.40
2022-11-21T21:38:44.484Z,7.50
2022-11-21T21:41:13.811Z,8.50
2022-11-21T21:43:41.407Z,8.93
2022-11-21T21:46:10.522Z,10.07
2022-11-21T21:48:37.371Z,9.15
2022-11-21T21:51:04.853Z,9.52
2022-11-21T21:53:32.133Z,10.10
2022-11-21T21:56:00.511Z,10.05
2022-11-21T21:58:27.848Z,10.67
2022-11-21T22:00:54.513Z,6.78
2022-11-21T22:03:21.027Z,7.05
2022-11-21T22:05:47.601Z,8.77
2022-11-21T22:08:14.122Z,6.97
2022-11-21T22:10:40.694Z,7.13
2022-11-21T22:13:08.807Z,8.10
2022-11-21T22:15:35.398Z,6.75
2022-11-21T22:18:02.448Z,8.30
2022-11-21T22:20:29.037Z,8.40
2022-11-21T22:23:00.211Z,9.60
2022-11-21T22:25:27.260Z,9.00
2022-11-21T22:27:53.785Z,11.75
2022-11-21T22:30:21.769Z,8.68
2022-11-21T22:32:48.306Z,10.57
2022-11-21T22:35:14.872Z,9.37
2022-11-21T22:37:41.377Z,7.32
2022-11-21T22:40:08.842Z,10.05
2022-11-21T22:42:35.367Z,8.32
2022-11-21T22:45:02.172Z,7.93
2022-11-21T22:47:30.089Z,8.23
2022-11-21T22:49:56.581Z,8.48
2022-11-21T22:52:23.362Z,9.25
2022-11-21T22:54:49.952Z,8.90
2022-11-21T22:57:16.498Z,8.57
2022-11-21T22:59:43.076Z,8.70
2022-11-21T23:02:09.868Z,9.10
2022-11-21T23:04:37.799Z,9.57
2022-11-21T23:07:04.448Z,8.55
2022-11-21T23:09:31.533Z,8.23
2022-11-21T23:11:58.380Z,8.23
2022-11-21T23:14:24.890Z,10.05
2022-11-21T23:16:51.382Z,8.93
2022-11-21T23:19:18.025Z,7.20
2022-11-21T23:21:46.072Z,8.23
2022-11-21T23:24:12.641Z,9.20
2022-11-21T23:26:39.351Z,7.65
2022-11-21T23:29:08.855Z,8.35
2022-11-21T23:31:35.710Z,7.72
2022-11-21T23:34:02.475Z,7.10
2022-11-21T23:36:28.998Z,5.67
2022-11-21T23:38:57.093Z,6.95
2022-11-21T23:41:23.601Z,8.45
2022-11-21T23:43:50.135Z,7.13
2022-11-21T23:46:16.821Z,8.18
2022-11-21T23:48:43.364Z,9.57
2022-11-21T23:51:10.655Z,7.22
2022-11-21T23:53:37.163Z,7.30
2022-11-21T23:56:05.846Z,9.18
2022-11-21T23:58:35.590Z,8.35
